LTAY/DNZ METAR and TAF weather

Enter ICAO airport designator
Station Type Date Time Source
LTAY METAR 2020/01/18 23:50 UTC NOAA

LTAY 182350Z 07009KT 030V090 CAVOK M02/M07 Q1017


Station Type Date Time Source
LTAY Decoded METAR 2020/01/18 23:50 UTC NOAA

Cardak, Turkey (LTAY) 37-47N 029-42E
Jan 18, 2020 - 06:50 PM EST / 2020.01.18 2350 UTC
Wind: from the ENE (070 degrees) at 10 MPH (9 KT) (direction variable):0
Visibility: greater than 7 mile(s):0
Temperature: 28 F (-2 C)
Windchill: 19 F (-7 C):1
Dew Point: 19 F (-7 C)
Relative Humidity: 68%
Pressure (altimeter): 30.03 in. Hg (1017 hPa)
ob: LTAY 182350Z 07009KT 030V090 CAVOK M02/M07 Q1017
cycle: 0

Station Type Date Time Source
LTAY TAF UTC NOAA

Error!

Example: see airport list